createdAt,value
2023-03-15T00:02:28.752Z,9.15
2023-03-15T00:05:13.982Z,7.95
2023-03-15T00:07:59.719Z,8.10
2023-03-15T00:10:47.195Z,7.38
2023-03-15T00:13:33.531Z,7.55
2023-03-15T00:16:19.131Z,8.25
2023-03-15T00:19:04.574Z,7.10
2023-03-15T00:21:49.896Z,7.13
2023-03-15T00:24:35.523Z,8.27
2023-03-15T00:27:20.860Z,8.07
2023-03-15T00:30:07.091Z,7.68
2023-03-15T00:32:56.233Z,8.50
2023-03-15T00:35:43.859Z,9.63
2023-03-15T00:38:29.572Z,16.70
2023-03-15T00:41:17.523Z,13.40
2023-03-15T00:44:04.245Z,12.15
2023-03-15T00:46:50.708Z,10.88
2023-03-15T00:49:36.014Z,11.32
2023-03-15T00:52:22.078Z,11.80
2023-03-15T00:55:13.942Z,11.85
2023-03-15T00:57:59.443Z,10.68
2023-03-15T01:00:46.836Z,10.80
2023-03-15T01:03:32.223Z,14.57
2023-03-15T01:06:20.682Z,12.15
2023-03-15T01:09:06.552Z,11.80
2023-03-15T01:11:52.027Z,10.32
2023-03-15T01:14:39.078Z,10.98
2023-03-15T01:17:24.531Z,9.65
2023-03-15T01:20:13.221Z,8.07
2023-03-15T01:22:59.517Z,7.82
2023-03-15T01:25:45.083Z,7.60
2023-03-15T01:28:30.669Z,7.32
2023-03-15T01:31:25.680Z,7.25
2023-03-15T01:34:11.195Z,7.47
2023-03-15T01:36:56.598Z,7.63
2023-03-15T01:39:48.895Z,7.13
2023-03-15T01:42:54.055Z,6.68
2023-03-15T01:46:04.580Z,6.00
2023-03-15T01:49:02.356Z,5.55
2023-03-15T01:52:06.977Z,6.60
2023-03-15T01:55:19.545Z,5.53
2023-03-15T01:58:28.810Z,5.25
2023-03-15T02:01:16.372Z,6.22
2023-03-15T02:04:11.774Z,5.60
2023-03-15T02:07:03.688Z,6.25
2023-03-15T02:10:01.471Z,5.32
2023-03-15T02:12:53.102Z,5.53
2023-03-15T02:15:39.327Z,5.43
2023-03-15T02:18:26.261Z,5.80
2023-03-15T02:21:21.713Z,6.22
2023-03-15T02:24:12.990Z,6.25
2023-03-15T02:26:58.826Z,6.10
2023-03-15T02:29:44.081Z,6.50
2023-03-15T02:32:31.523Z,6.15
2023-03-15T02:35:29.638Z,5.72
2023-03-15T02:38:15.430Z,6.20
2023-03-15T02:41:03.768Z,6.43
2023-03-15T02:43:53.351Z,6.53
2023-03-15T02:46:38.743Z,6.05
2023-03-15T02:49:29.981Z,6.93
2023-03-15T02:52:15.629Z,7.00
2023-03-15T02:55:02.245Z,6.45
2023-03-15T02:57:48.285Z,6.35
2023-03-15T03:00:33.933Z,6.78
2023-03-15T03:03:19.284Z,6.53
2023-03-15T03:06:05.130Z,6.43
2023-03-15T03:08:51.120Z,5.78
2023-03-15T03:11:39.046Z,6.40
2023-03-15T03:14:24.768Z,6.10
2023-03-15T03:17:10.290Z,6.88
2023-03-15T03:19:57.323Z,6.70
2023-03-15T03:22:50.421Z,7.43
2023-03-15T03:25:37.577Z,6.63
2023-03-15T03:28:27.909Z,6.28
2023-03-15T03:31:35.474Z,6.65
2023-03-15T03:34:22.437Z,6.32
2023-03-15T03:37:09.190Z,6.72
2023-03-15T03:40:09.293Z,5.45
2023-03-15T03:42:55.301Z,5.90
2023-03-15T03:45:41.756Z,6.40
2023-03-15T03:48:28.935Z,5.70
2023-03-15T03:51:14.593Z,6.78
2023-03-15T03:54:00.116Z,11.18
2023-03-15T03:56:45.537Z,9.57
2023-03-15T03:59:31.500Z,6.07
2023-03-15T04:02:22.566Z,6.85
2023-03-15T04:05:17.040Z,5.97
2023-03-15T04:08:03.477Z,5.90
2023-03-15T04:10:56.961Z,6.13
2023-03-15T04:13:45.533Z,10.77
2023-03-15T04:16:31.260Z,7.35
2023-03-15T04:19:20.573Z,7.28
2023-03-15T04:22:06.683Z,5.80
2023-03-15T04:25:05.666Z,7.18
2023-03-15T04:28:12.812Z,6.93
2023-03-15T04:31:14.978Z,6.45
2023-03-15T04:34:17.715Z,6.53
2023-03-15T04:37:35.588Z,7.50
2023-03-15T04:40:54.923Z,6.85
2023-03-15T04:43:58.685Z,7.40
2023-03-15T04:47:06.686Z,8.40
2023-03-15T04:50:10.581Z,9.70
2023-03-15T04:53:18.912Z,8.82
2023-03-15T04:56:25.112Z,9.82
2023-03-15T04:59:26.802Z,10.50
2023-03-15T05:02:31.159Z,10.48
2023-03-15T05:05:25.546Z,11.70
2023-03-15T05:08:10.965Z,12.60
2023-03-15T05:11:12.440Z,11.63
2023-03-15T05:14:15.460Z,10.90
2023-03-15T05:17:20.049Z,18.10
2023-03-15T05:20:26.022Z,14.80
2023-03-15T05:23:30.178Z,9.93
2023-03-15T05:26:28.579Z,8.18
2023-03-15T05:29:51.393Z,12.82
2023-03-15T05:33:16.027Z,20.15
2023-03-15T05:36:08.552Z,18.52
2023-03-15T05:39:18.508Z,13.85
2023-03-15T05:42:27.506Z,13.45
2023-03-15T05:45:37.423Z,9.65
2023-03-15T05:48:22.721Z,8.68
2023-03-15T05:51:15.192Z,8.93
2023-03-15T05:54:23.136Z,6.60
2023-03-15T05:57:28.879Z,5.88
2023-03-15T06:00:39.202Z,5.15
2023-03-15T06:03:34.085Z,5.32
2023-03-15T06:06:31.524Z,5.55
2023-03-15T06:09:18.095Z,5.22
2023-03-15T06:12:05.277Z,5.90
2023-03-15T06:14:50.669Z,5.85
2023-03-15T06:17:36.537Z,6.57
2023-03-15T06:20:21.972Z,7.00
2023-03-15T06:23:07.813Z,8.38
2023-03-15T06:26:15.122Z,7.80
2023-03-15T06:29:01.155Z,6.88
2023-03-15T06:31:48.094Z,6.07
2023-03-15T06:34:34.016Z,8.20
2023-03-15T06:37:29.024Z,11.80
2023-03-15T06:40:20.415Z,17.98
2023-03-15T06:43:07.515Z,17.73
2023-03-15T06:45:55.978Z,16.13
2023-03-15T06:48:41.644Z,17.13
2023-03-15T06:51:29.563Z,12.85
2023-03-15T06:54:14.945Z,8.73
2023-03-15T06:57:00.902Z,7.68
2023-03-15T06:59:46.196Z,10.60
2023-03-15T07:02:37.107Z,12.07
2023-03-15T07:05:22.561Z,7.18
2023-03-15T07:08:08.067Z,7.43
2023-03-15T07:10:54.003Z,11.15
2023-03-15T07:13:39.323Z,7.68
2023-03-15T07:16:25.885Z,9.52
2023-03-15T07:19:11.478Z,9.38
2023-03-15T07:21:56.843Z,8.90
2023-03-15T07:24:42.222Z,7.30
2023-03-15T07:27:27.660Z,6.40
2023-03-15T07:30:13.589Z,6.95
2023-03-15T07:32:59.079Z,6.63
2023-03-15T07:35:45.548Z,6.68
2023-03-15T07:38:31.209Z,6.57
2023-03-15T07:41:17.589Z,7.97
2023-03-15T07:44:24.133Z,8.32
2023-03-15T07:47:09.872Z,6.80
2023-03-15T07:49:55.691Z,7.68
2023-03-15T07:52:41.088Z,8.73
2023-03-15T07:55:26.721Z,7.00
2023-03-15T07:58:12.055Z,7.88
2023-03-15T08:00:58.281Z,8.25
2023-03-15T08:03:43.916Z,10.27
2023-03-15T08:06:29.974Z,9.40
2023-03-15T08:09:16.647Z,7.88
2023-03-15T08:12:02.667Z,8.15
2023-03-15T08:14:48.451Z,9.48
2023-03-15T08:17:37.287Z,9.10
2023-03-15T08:20:23.069Z,7.63
2023-03-15T08:23:09.270Z,8.93
2023-03-15T08:25:56.976Z,8.30
2023-03-15T08:28:44.543Z,5.13
2023-03-15T08:31:33.459Z,4.10
2023-03-15T08:34:19.112Z,4.30
2023-03-15T08:37:04.780Z,4.13
2023-03-15T08:39:57.912Z,3.50
2023-03-15T08:42:43.614Z,2.55
2023-03-15T08:45:29.250Z,2.17
2023-03-15T08:48:15.001Z,1.77
2023-03-15T08:51:05.421Z,1.90
2023-03-15T08:53:52.923Z,1.73
2023-03-15T08:56:39.989Z,1.90
2023-03-15T08:59:31.679Z,2.08
2023-03-15T09:02:18.517Z,2.28
2023-03-15T09:05:07.233Z,2.20
2023-03-15T09:07:53.323Z,1.67
2023-03-15T09:10:38.689Z,1.58
2023-03-15T09:13:24.816Z,1.73
2023-03-15T09:16:10.258Z,1.40
2023-03-15T09:18:55.651Z,1.83
2023-03-15T09:21:41.858Z,1.52
2023-03-15T09:24:27.984Z,1.67
2023-03-15T09:27:13.619Z,2.42
2023-03-15T09:29:59.365Z,2.08
2023-03-15T09:32:45.934Z,1.88
2023-03-15T09:35:31.435Z,2.00
2023-03-15T09:38:16.870Z,2.17
2023-03-15T09:41:03.810Z,1.30
2023-03-15T09:43:49.376Z,3.28
2023-03-15T09:46:55.488Z,1.60
2023-03-15T09:50:06.218Z,0.93
2023-03-15T09:52:58.565Z,1.50
2023-03-15T09:55:47.552Z,0.88
2023-03-15T09:58:34.844Z,1.02
2023-03-15T10:01:25.870Z,0.90
2023-03-15T10:04:37.307Z,1.67
2023-03-15T10:07:23.428Z,1.83
2023-03-15T10:10:16.240Z,1.35
2023-03-15T10:13:29.262Z,0.98
2023-03-15T10:16:21.027Z,1.10
2023-03-15T10:19:21.168Z,1.17
2023-03-15T10:22:12.865Z,1.50
2023-03-15T10:28:10.810Z,1.83
2023-03-15T10:31:00.177Z,1.90
2023-03-15T10:33:48.371Z,1.63
2023-03-15T10:36:34.179Z,1.33
2023-03-15T10:39:20.039Z,1.70
2023-03-15T10:42:05.821Z,1.52
2023-03-15T10:44:51.092Z,0.55
2023-03-15T10:47:45.203Z,1.17
2023-03-15T10:50:33.925Z,1.50
2023-03-15T10:53:25.642Z,0.95
2023-03-15T10:56:21.944Z,2.00
2023-03-15T10:59:16.526Z,2.33
2023-03-15T11:02:14.385Z,0.85
2023-03-15T11:05:19.567Z,1.40
2023-03-15T11:08:16.180Z,1.63
2023-03-15T11:11:02.088Z,2.45
2023-03-15T11:14:01.528Z,1.77
2023-03-15T11:16:52.468Z,0.82
2023-03-15T11:19:42.253Z,0.88
2023-03-15T11:22:27.666Z,0.75
2023-03-15T11:25:17.684Z,1.17
2023-03-15T11:28:04.475Z,1.25
2023-03-15T11:30:50.536Z,0.80
2023-03-15T11:33:43.563Z,1.02
2023-03-15T11:36:34.687Z,1.10
2023-03-15T11:39:34.768Z,1.95
2023-03-15T11:42:32.664Z,1.55
2023-03-15T11:45:27.062Z,1.00
2023-03-15T11:48:34.357Z,2.22
2023-03-15T11:51:20.005Z,0.70
2023-03-15T11:54:10.462Z,0.80
2023-03-15T11:57:06.251Z,0.63
2023-03-15T11:59:51.902Z,0.65
2023-03-15T12:02:51.562Z,0.80
2023-03-15T12:06:18.795Z,0.50
2023-03-15T12:09:33.250Z,0.75
2023-03-15T12:12:24.977Z,0.70
2023-03-15T12:15:19.630Z,1.10
2023-03-15T12:18:09.027Z,0.65
2023-03-15T12:21:10.932Z,0.95
2023-03-15T12:24:01.514Z,0.82
2023-03-15T12:26:49.795Z,0.93
2023-03-15T12:29:36.301Z,1.48
2023-03-15T12:32:21.698Z,1.08
2023-03-15T12:35:17.568Z,1.02
2023-03-15T12:38:03.142Z,1.50
2023-03-15T12:40:56.556Z,0.85
2023-03-15T12:43:46.459Z,2.97
2023-03-15T12:46:41.361Z,3.95
2023-03-15T12:49:26.824Z,1.88
2023-03-15T12:52:13.491Z,2.20
2023-03-15T12:55:05.958Z,1.60
2023-03-15T12:57:58.018Z,1.35
2023-03-15T13:00:44.582Z,1.63
2023-03-15T13:03:30.381Z,1.50
2023-03-15T13:06:24.725Z,1.75
2023-03-15T13:09:35.320Z,1.02
2023-03-15T13:12:47.687Z,0.80
2023-03-15T13:16:06.632Z,0.80
2023-03-15T13:19:05.461Z,0.68
2023-03-15T13:22:09.797Z,6.93
2023-03-15T13:24:58.436Z,9.25
2023-03-15T13:27:55.849Z,3.33
2023-03-15T13:30:46.584Z,0.85
2023-03-15T13:33:32.753Z,3.03
2023-03-15T13:36:23.502Z,3.92
2023-03-15T13:39:16.420Z,2.45
2023-03-15T13:42:05.960Z,0.82
2023-03-15T13:45:14.135Z,2.10
2023-03-15T13:48:04.848Z,1.30
2023-03-15T13:50:54.730Z,2.17
2023-03-15T13:53:49.606Z,2.72
2023-03-15T13:56:49.714Z,2.38
2023-03-15T13:59:40.445Z,2.10
2023-03-15T14:02:36.785Z,4.00
2023-03-15T14:05:28.976Z,3.42
2023-03-15T14:08:23.046Z,3.42
2023-03-15T14:11:18.025Z,3.90
2023-03-15T14:14:23.443Z,1.67
2023-03-15T14:17:24.558Z,2.88
2023-03-15T14:20:16.064Z,2.60
2023-03-15T14:23:04.177Z,3.08
2023-03-15T14:26:15.176Z,2.10
2023-03-15T14:29:16.568Z,1.73
2023-03-15T14:32:05.797Z,0.82
2023-03-15T14:35:00.021Z,1.50
2023-03-15T14:37:46.881Z,1.40
2023-03-15T14:40:38.690Z,1.70
2023-03-15T14:43:24.481Z,1.93
2023-03-15T14:46:10.065Z,2.08
2023-03-15T14:48:55.350Z,1.30
2023-03-15T14:51:40.612Z,1.30
2023-03-15T14:54:26.331Z,1.10
2023-03-15T14:57:11.910Z,2.05
2023-03-15T14:59:57.227Z,2.08
2023-03-15T15:02:47.980Z,1.70
2023-03-15T15:05:35.483Z,1.73
2023-03-15T15:08:22.493Z,1.65
2023-03-15T15:11:08.991Z,2.42
2023-03-15T15:13:54.906Z,2.45
2023-03-15T15:16:41.983Z,2.03
2023-03-15T15:19:28.349Z,1.45
2023-03-15T15:22:14.353Z,0.88
2023-03-15T15:25:01.497Z,1.77
2023-03-15T15:27:49.012Z,2.97
2023-03-15T15:30:35.202Z,2.20
2023-03-15T15:33:20.817Z,2.63
2023-03-15T15:36:12.257Z,2.13
2023-03-15T15:38:58.245Z,2.15
2023-03-15T15:41:43.934Z,2.63
2023-03-15T15:44:29.632Z,3.72
2023-03-15T15:47:15.761Z,3.58
2023-03-15T15:50:01.725Z,4.25
2023-03-15T15:52:52.597Z,3.25
2023-03-15T15:55:40.430Z,3.80
2023-03-15T15:58:26.639Z,3.83
2023-03-15T16:01:14.244Z,3.45
2023-03-15T16:04:02.169Z,3.33
2023-03-15T16:06:54.527Z,3.53
2023-03-15T16:09:44.159Z,3.95
2023-03-15T16:12:34.172Z,4.43
2023-03-15T16:15:22.540Z,4.35
2023-03-15T16:18:11.929Z,6.07
2023-03-15T16:20:59.230Z,4.00
2023-03-15T16:23:50.710Z,2.97
2023-03-15T16:26:38.228Z,4.13
2023-03-15T16:29:27.366Z,3.97
2023-03-15T16:32:29.778Z,4.53
2023-03-15T16:35:27.849Z,3.40
2023-03-15T16:38:24.110Z,4.28
2023-03-15T16:41:18.300Z,2.80
2023-03-15T16:44:14.981Z,3.78
2023-03-15T16:47:01.953Z,3.80
2023-03-15T16:49:47.638Z,5.05
2023-03-15T16:52:33.763Z,3.85
2023-03-15T16:55:26.186Z,3.95
2023-03-15T16:58:17.956Z,2.70
2023-03-15T17:01:03.708Z,4.75
2023-03-15T17:03:49.172Z,3.97
2023-03-15T17:06:35.218Z,3.17
2023-03-15T17:09:23.422Z,3.55
2023-03-15T17:12:22.865Z,4.22
2023-03-15T17:15:10.428Z,3.75
2023-03-15T17:17:58.673Z,4.32
2023-03-15T17:20:45.639Z,5.32
2023-03-15T17:23:31.931Z,4.05
2023-03-15T17:26:21.109Z,4.43
2023-03-15T17:29:07.430Z,4.13
2023-03-15T17:31:53.506Z,4.13
2023-03-15T17:34:38.906Z,4.65
2023-03-15T17:37:25.810Z,5.93
2023-03-15T17:40:23.767Z,6.72
2023-03-15T17:43:12.766Z,5.43
2023-03-15T17:45:58.088Z,6.18
2023-03-15T17:48:43.488Z,4.72
2023-03-15T17:51:31.598Z,4.60
2023-03-15T17:54:18.437Z,4.55
2023-03-15T17:57:05.068Z,4.88
2023-03-15T17:59:51.383Z,4.72
2023-03-15T18:02:40.721Z,3.78
2023-03-15T18:05:29.970Z,4.85
2023-03-15T18:08:18.523Z,4.72
2023-03-15T18:11:11.891Z,5.30
2023-03-15T18:13:57.247Z,4.43
2023-03-15T18:16:43.465Z,4.28
2023-03-15T18:19:29.086Z,4.50
2023-03-15T18:22:17.029Z,5.00
2023-03-15T18:25:04.903Z,4.25
2023-03-15T18:27:51.349Z,4.38
2023-03-15T18:30:37.104Z,4.22
2023-03-15T18:33:22.841Z,5.22
2023-03-15T18:36:08.920Z,5.53
2023-03-15T18:38:55.093Z,5.57
2023-03-15T18:41:40.750Z,5.32
2023-03-15T18:44:26.131Z,5.47
2023-03-15T18:47:11.566Z,6.63
2023-03-15T18:50:04.441Z,5.43
2023-03-15T18:52:55.743Z,6.85
2023-03-15T18:55:40.848Z,6.32
2023-03-15T18:58:27.824Z,7.00
2023-03-15T19:01:13.555Z,7.00
2023-03-15T19:03:59.174Z,13.20
2023-03-15T19:06:44.679Z,6.20
2023-03-15T19:09:30.055Z,5.60
2023-03-15T19:12:15.295Z,5.53
2023-03-15T19:15:01.314Z,5.82
2023-03-15T19:17:48.685Z,6.30
2023-03-15T19:20:34.970Z,5.78
2023-03-15T19:23:21.096Z,6.03
2023-03-15T19:26:07.043Z,5.00
2023-03-15T19:28:52.821Z,5.15
2023-03-15T19:31:38.943Z,7.53
2023-03-15T19:34:25.308Z,7.28
2023-03-15T19:37:10.713Z,5.13
2023-03-15T19:39:56.182Z,3.92
2023-03-15T19:42:42.493Z,4.82
2023-03-15T19:45:28.472Z,5.22
2023-03-15T19:48:16.117Z,5.60
2023-03-15T19:51:02.437Z,3.42
2023-03-15T19:53:48.346Z,3.65
2023-03-15T19:56:33.869Z,4.60
2023-03-15T19:59:19.638Z,3.78
2023-03-15T20:02:06.022Z,3.83
2023-03-15T20:04:51.596Z,3.75
2023-03-15T20:07:37.718Z,3.53
2023-03-15T20:10:23.980Z,4.43
2023-03-15T20:13:10.864Z,3.95
2023-03-15T20:15:57.352Z,2.95
2023-03-15T20:18:42.998Z,2.63
2023-03-15T20:21:29.643Z,2.95
2023-03-15T20:24:15.187Z,3.53
2023-03-15T20:27:00.612Z,4.10
2023-03-15T20:29:46.215Z,9.77
2023-03-15T20:32:32.090Z,5.75
2023-03-15T20:35:17.792Z,6.97
2023-03-15T20:38:06.934Z,6.25
2023-03-15T20:40:56.626Z,5.32
2023-03-15T20:43:42.058Z,9.05
2023-03-15T20:46:27.856Z,7.38
2023-03-15T20:49:14.280Z,7.85
2023-03-15T20:51:59.793Z,6.88
2023-03-15T20:54:45.210Z,5.47
2023-03-15T20:57:31.286Z,7.57
2023-03-15T21:00:20.496Z,6.63
2023-03-15T21:03:10.994Z,7.65
2023-03-15T21:05:57.748Z,6.85
2023-03-15T21:08:43.924Z,6.25
2023-03-15T21:11:30.828Z,5.10
2023-03-15T21:14:16.306Z,6.60
2023-03-15T21:17:01.923Z,10.93
2023-03-15T21:19:47.487Z,10.07
2023-03-15T21:22:32.971Z,13.73
2023-03-15T21:25:18.826Z,19.50
2023-03-15T21:28:04.740Z,8.43
2023-03-15T21:30:52.455Z,9.43
2023-03-15T21:33:38.585Z,9.98
2023-03-15T21:36:23.995Z,8.10
2023-03-15T21:39:10.835Z,7.82
2023-03-15T21:41:56.192Z,5.10
2023-03-15T21:44:41.740Z,7.63
2023-03-15T21:47:27.680Z,6.57
2023-03-15T21:50:13.384Z,3.97
2023-03-15T21:52:58.668Z,4.28
2023-03-15T21:55:46.183Z,5.38
2023-03-15T21:58:31.691Z,5.93
2023-03-15T22:01:17.113Z,5.60
2023-03-15T22:04:02.687Z,4.55
2023-03-15T22:06:48.177Z,4.82
2023-03-15T22:09:33.492Z,4.30
2023-03-15T22:12:18.781Z,7.35
2023-03-15T22:15:06.370Z,8.05
2023-03-15T22:17:51.847Z,5.63
2023-03-15T22:20:38.033Z,4.32
2023-03-15T22:23:24.096Z,5.05
2023-03-15T22:26:09.825Z,4.05
2023-03-15T22:28:56.051Z,4.68
2023-03-15T22:31:41.530Z,4.28
2023-03-15T22:34:27.599Z,4.13
2023-03-15T22:37:14.438Z,4.45
2023-03-15T22:40:00.656Z,3.55
2023-03-15T22:42:46.918Z,3.83
2023-03-15T22:45:32.539Z,4.03
2023-03-15T22:48:18.076Z,4.57
2023-03-15T22:51:14.244Z,4.03
2023-03-15T22:53:59.997Z,3.97
2023-03-15T22:56:45.387Z,4.30
2023-03-15T22:59:30.765Z,3.50
2023-03-15T23:02:15.987Z,4.05
2023-03-15T23:05:01.677Z,3.70
2023-03-15T23:07:47.682Z,7.35
2023-03-15T23:10:33.759Z,7.30
2023-03-15T23:13:19.313Z,7.60
2023-03-15T23:16:04.882Z,7.03
2023-03-15T23:18:50.430Z,7.95
2023-03-15T23:21:35.979Z,8.35
2023-03-15T23:24:22.693Z,7.95
2023-03-15T23:27:08.553Z,9.15
2023-03-15T23:29:55.217Z,10.43
2023-03-15T23:32:42.057Z,7.13
2023-03-15T23:35:28.747Z,3.63
2023-03-15T23:38:14.433Z,3.08
2023-03-15T23:41:01.040Z,2.85
2023-03-15T23:43:46.698Z,4.30
2023-03-15T23:46:36.107Z,4.18
2023-03-15T23:49:26.508Z,6.78
2023-03-15T23:52:11.998Z,4.93
2023-03-15T23:54:57.283Z,3.95
2023-03-15T23:57:43.351Z,5.28
